Time;durP1;ratioP1;P1;durP2;ratioP2;P2;SDS_P1;SDS_P2;PMS_P1;PMS_P2;Temp;Humidity;BMP_temperature;BMP_pressure;BME280_temperature;BME280_humidity;BME280_pressure;Samples;Min_cycle;Max_cycle;Signal;HPM_P1;HPM_P2
2022/07/25 00:01:46;;;;;;;2.60;2.40;;;25.20;91.50;;;;;;5105813;28;20099;-34
2022/07/25 00:04:13;;;;;;;3.38;2.50;;;25.20;91.50;;;;;;5106913;28;20430;-36
2022/07/25 00:06:39;;;;;;;2.65;2.45;;;25.20;91.50;;;;;;5106185;28;20054;-34
2022/07/25 00:09:05;;;;;;;3.10;2.67;;;25.20;91.50;;;;;;5106148;28;20442;-34
2022/07/25 00:11:30;;;;;;;3.28;2.97;;;25.20;91.40;;;;;;5106418;28;20501;-35
2022/07/25 00:13:56;;;;;;;3.10;2.90;;;25.20;91.40;;;;;;5107036;28;20012;-34
2022/07/25 00:16:22;;;;;;;2.78;2.58;;;25.20;91.40;;;;;;5106277;28;20536;-35
2022/07/25 00:18:47;;;;;;;2.88;2.60;;;25.20;91.50;;;;;;5105509;28;20437;-35
2022/07/25 00:21:13;;;;;;;2.80;2.60;;;25.20;91.50;;;;;;5106751;28;20055;-35
2022/07/25 00:23:38;;;;;;;3.03;2.80;;;25.10;91.40;;;;;;5105311;28;20054;-35
2022/07/25 00:26:04;;;;;;;3.20;2.90;;;25.00;91.50;;;;;;5106482;28;20380;-36
2022/07/25 00:28:30;;;;;;;3.10;2.80;;;25.00;91.60;;;;;;5105468;28;20467;-35
2022/07/25 00:30:55;;;;;;;3.00;2.70;;;25.00;91.60;;;;;;5105922;28;20027;-34
2022/07/25 00:33:21;;;;;;;3.58;2.75;;;25.00;91.60;;;;;;5105938;28;20034;-36
2022/07/25 00:35:46;;;;;;;3.42;2.90;;;25.00;91.70;;;;;;5105918;28;20300;-35
2022/07/25 00:38:12;;;;;;;3.30;3.00;;;25.00;91.70;;;;;;5105973;28;20429;-34
2022/07/25 00:40:38;;;;;;;3.13;2.83;;;24.90;91.60;;;;;;5106428;28;20532;-35
2022/07/25 00:43:03;;;;;;;3.35;2.95;;;25.00;91.70;;;;;;5106495;28;20023;-35
2022/07/25 00:45:29;;;;;;;3.00;2.80;;;25.00;91.70;;;;;;5104983;28;20356;-35
2022/07/25 00:47:54;;;;;;;3.40;3.05;;;24.90;91.70;;;;;;5106689;28;20030;-36
2022/07/25 00:50:20;;;;;;;3.38;3.05;;;24.90;91.70;;;;;;5105655;28;20103;-35
2022/07/25 00:52:46;;;;;;;3.50;3.20;;;24.90;91.80;;;;;;5105076;28;20020;-35
2022/07/25 00:55:12;;;;;;;3.40;3.10;;;24.80;91.80;;;;;;5102100;28;20140;-40
2022/07/25 00:57:38;;;;;;;3.28;2.95;;;24.80;91.90;;;;;;5104430;28;20763;-34
2022/07/25 01:00:10;;;;;;;3.97;3.20;;;24.80;91.90;;;;;;5105651;28;20147;-35
2022/07/25 01:02:36;;;;;;;3.40;3.10;;;24.80;91.90;;;;;;5105463;28;20011;-35
2022/07/25 01:05:03;;;;;;;3.22;2.92;;;24.70;91.80;;;;;;5105732;28;20078;-35
2022/07/25 01:07:29;;;;;;;3.55;3.25;;;24.80;91.90;;;;;;5105443;28;20027;-36
2022/07/25 01:09:55;;;;;;;3.72;3.30;;;24.70;91.90;;;;;;5105894;28;20080;-36
2022/07/25 01:12:21;;;;;;;3.00;2.80;;;24.70;91.90;;;;;;5104879;28;20030;-35
2022/07/25 01:14:46;;;;;;;4.00;3.40;;;24.70;92.00;;;;;;5105155;28;20028;-35
2022/07/25 01:17:12;;;;;;;4.07;3.78;;;24.70;92.00;;;;;;5105914;28;20023;-35
2022/07/25 01:19:38;;;;;;;3.67;3.38;;;24.60;92.00;;;;;;5104220;28;20489;-35
2022/07/25 01:22:03;;;;;;;3.83;3.47;;;24.60;92.00;;;;;;5105803;28;20024;-35
2022/07/25 01:24:29;;;;;;;3.60;3.30;;;24.60;92.10;;;;;;5104619;28;20107;-36
2022/07/25 01:26:54;;;;;;;4.00;3.60;;;24.60;92.20;;;;;;5104917;28;20543;-36
2022/07/25 01:29:20;;;;;;;3.88;3.58;;;24.60;92.20;;;;;;5104864;28;20024;-35
2022/07/25 01:31:46;;;;;;;4.65;3.40;;;24.60;92.30;;;;;;5104687;28;20019;-34
2022/07/25 01:34:11;;;;;;;3.85;3.50;;;24.50;92.30;;;;;;5105197;28;20123;-34
2022/07/25 01:36:37;;;;;;;3.70;3.40;;;24.50;92.40;;;;;;5104874;28;20050;-36
2022/07/25 01:39:02;;;;;;;3.65;3.28;;;24.40;92.40;;;;;;5105429;28;20039;-34
2022/07/25 01:41:28;;;;;;;3.58;3.28;;;24.40;92.40;;;;;;5103799;28;20528;-35
2022/07/25 01:43:53;;;;;;;3.70;3.40;;;24.40;92.40;;;;;;5104992;28;20491;-36
2022/07/25 01:46:19;;;;;;;4.28;3.70;;;24.40;92.50;;;;;;5104461;28;20024;-34
2022/07/25 01:48:45;;;;;;;4.20;3.83;;;24.40;92.50;;;;;;5104172;28;20415;-34
2022/07/25 01:51:10;;;;;;;4.38;3.97;;;24.30;92.50;;;;;;5105080;28;20371;-34
2022/07/25 01:53:36;;;;;;;4.32;3.80;;;24.30;92.50;;;;;;5104706;28;20046;-36
2022/07/25 01:56:03;;;;;;;4.78;4.15;;;24.30;92.50;;;;;;5103899;28;20557;-35
2022/07/25 01:58:29;;;;;;;4.13;3.83;;;24.30;92.50;;;;;;5104843;28;20031;-35
2022/07/25 02:00:54;;;;;;;4.72;3.95;;;24.30;92.50;;;;;;5104239;28;20072;-34
2022/07/25 02:03:29;;;;;;;4.85;4.45;;;24.40;92.60;;;;;;5105006;28;20028;-36
2022/07/25 02:05:55;;;;;;;4.60;4.20;;;24.30;92.60;;;;;;5105398;28;20055;-34
2022/07/25 02:08:22;;;;;;;9.30;4.15;;;24.30;92.60;;;;;;5104206;28;20027;-34
2022/07/25 02:10:47;;;;;;;4.30;4.00;;;24.30;92.60;;;;;;5109064;28;20024;-36
2022/07/25 02:13:13;;;;;;;4.30;3.90;;;24.30;92.60;;;;;;5108638;28;20469;-36
2022/07/25 02:15:38;;;;;;;4.28;3.90;;;24.30;92.60;;;;;;5107815;28;20086;-36
2022/07/25 02:18:04;;;;;;;4.82;4.25;;;24.30;92.60;;;;;;5108522;28;20076;-35
2022/07/25 02:20:30;;;;;;;4.60;4.20;;;24.30;92.60;;;;;;5108425;28;20031;-36
2022/07/25 02:22:55;;;;;;;4.50;4.13;;;24.30;92.50;;;;;;5107795;28;20023;-34
2022/07/25 02:25:21;;;;;;;4.18;3.78;;;24.30;92.50;;;;;;5108214;28;20534;-37
2022/07/25 02:27:47;;;;;;;4.00;3.70;;;24.30;92.50;;;;;;5108195;28;20019;-35
2022/07/25 02:30:13;;;;;;;4.30;3.90;;;24.30;92.50;;;;;;5107706;28;20545;-34
2022/07/25 02:32:38;;;;;;;4.30;3.90;;;24.30;92.50;;;;;;5107658;28;20034;-35
2022/07/25 02:35:06;;;;;;;4.90;4.40;;;24.30;92.50;;;;;;5108695;28;20367;-34
2022/07/25 02:37:31;;;;;;;4.85;4.45;;;24.20;92.60;;;;;;5107125;28;20023;-35
2022/07/25 02:39:57;;;;;;;4.45;4.05;;;24.20;92.60;;;;;;5108358;28;20027;-34
2022/07/25 02:42:23;;;;;;;4.50;4.10;;;24.20;92.70;;;;;;5108415;28;20020;-34
2022/07/25 02:44:48;;;;;;;4.72;4.32;;;24.20;92.80;;;;;;5106970;28;20524;-33
2022/07/25 02:47:14;;;;;;;6.03;4.72;;;24.10;93.20;;;;;;5107862;28;20008;-34
2022/07/25 02:49:39;;;;;;;5.05;4.50;;;24.10;92.90;;;;;;5108017;28;20506;-35
2022/07/25 02:52:05;;;;;;;4.85;4.30;;;24.10;92.90;;;;;;5107488;28;20022;-35
2022/07/25 02:54:30;;;;;;;4.85;4.43;;;24.10;93.00;;;;;;5107401;28;20015;-36
2022/07/25 02:56:56;;;;;;;5.18;4.78;;;24.10;93.10;;;;;;5107823;28;20360;-35
2022/07/25 02:59:21;;;;;;;5.70;4.72;;;24.00;93.10;;;;;;5106831;28;20556;-33
2022/07/25 03:01:47;;;;;;;5.57;4.70;;;24.00;93.20;;;;;;5107816;28;20150;-35
2022/07/25 03:04:12;;;;;;;4.82;4.43;;;24.00;93.20;;;;;;5106781;28;20031;-35
2022/07/25 03:06:38;;;;;;;4.75;4.28;;;23.90;93.20;;;;;;5107631;28;20051;-34
2022/07/25 03:09:03;;;;;;;4.80;4.40;;;23.90;93.20;;;;;;5107890;28;20032;-34
2022/07/25 03:11:29;;;;;;;5.13;4.72;;;23.90;93.20;;;;;;5106566;28;20038;-35
2022/07/25 03:13:55;;;;;;;4.75;4.35;;;23.90;93.30;;;;;;5106187;28;20519;-34
2022/07/25 03:16:20;;;;;;;5.88;4.85;;;23.90;93.40;;;;;;5094190;28;20123;-34
2022/07/25 03:18:46;;;;;;;5.13;4.72;;;23.80;93.40;;;;;;5097759;28;20070;-35
2022/07/25 03:21:11;;;;;;;4.97;4.57;;;23.80;93.40;;;;;;5107605;28;20035;-34
2022/07/25 03:23:37;;;;;;;5.20;4.70;;;23.80;93.80;;;;;;5107314;28;20562;-35
2022/07/25 03:26:03;;;;;;;6.95;4.47;;;23.70;93.50;;;;;;5107416;28;20054;-35
2022/07/25 03:28:32;;;;;;;5.90;4.78;;;23.70;93.50;;;;;;5106593;28;20019;-35
2022/07/25 03:30:57;;;;;;;6.20;5.00;;;23.70;93.50;;;;;;5107775;28;20023;-36
2022/07/25 03:33:23;;;;;;;5.47;4.90;;;23.70;93.60;;;;;;5106392;28;20035;-35
2022/07/25 03:35:48;;;;;;;5.47;4.97;;;23.70;93.70;;;;;;5107073;28;20489;-35
2022/07/25 03:38:14;;;;;;;5.15;4.65;;;23.70;93.80;;;;;;5107351;28;20055;-35
2022/07/25 03:40:39;;;;;;;4.85;4.28;;;23.60;93.90;;;;;;5106683;28;20317;-37
2022/07/25 03:43:05;;;;;;;5.63;5.13;;;23.70;93.90;;;;;;5107580;28;20049;-35
2022/07/25 03:45:30;;;;;;;5.25;4.75;;;23.60;93.80;;;;;;5106592;28;20118;-35
2022/07/25 03:47:56;;;;;;;5.63;5.13;;;23.60;93.90;;;;;;5106614;28;20057;-34
2022/07/25 03:50:21;;;;;;;5.20;4.75;;;23.60;93.90;;;;;;5106770;28;20031;-34
2022/07/25 03:52:47;;;;;;;5.72;4.90;;;23.60;94.00;;;;;;5107083;28;20054;-34
2022/07/25 03:55:12;;;;;;;5.80;5.20;;;23.60;94.00;;;;;;5106377;28;20487;-35
2022/07/25 03:57:38;;;;;;;7.05;5.03;;;23.60;94.10;;;;;;5106676;28;20513;-36
2022/07/25 04:00:06;;;;;;;5.75;5.13;;;23.60;94.10;;;;;;5106975;28;20050;-35
2022/07/25 04:02:32;;;;;;;5.80;4.93;;;23.60;94.10;;;;;;5106050;28;20075;-36
2022/07/25 04:04:57;;;;;;;6.03;5.50;;;23.60;94.10;;;;;;5106831;28;20027;-35
2022/07/25 04:07:23;;;;;;;5.57;5.07;;;23.60;94.20;;;;;;5107015;28;20482;-35
2022/07/25 04:09:48;;;;;;;5.57;5.07;;;23.60;94.20;;;;;;5105340;28;20536;-35
2022/07/25 04:12:14;;;;;;;5.43;4.93;;;23.60;94.20;;;;;;5095152;28;20630;-33
2022/07/25 04:14:39;;;;;;;5.75;5.25;;;23.50;94.30;;;;;;5105479;28;20057;-35
2022/07/25 04:17:05;;;;;;;5.30;4.80;;;23.50;94.30;;;;;;5107032;28;20418;-34
2022/07/25 04:19:30;;;;;;;4.97;4.57;;;23.50;94.40;;;;;;5106755;28;20043;-34
2022/07/25 04:21:56;;;;;;;5.57;4.90;;;23.50;94.40;;;;;;5105652;28;20382;-34
2022/07/25 04:24:22;;;;;;;5.25;4.78;;;23.60;94.40;;;;;;5106611;28;20024;-34
2022/07/25 04:26:47;;;;;;;5.88;5.20;;;23.60;94.50;;;;;;5105779;28;20062;-35
2022/07/25 04:29:13;;;;;;;6.78;5.20;;;23.50;94.40;;;;;;5105180;28;20023;-34
2022/07/25 04:31:38;;;;;;;4.80;4.32;;;23.50;94.40;;;;;;5105488;28;20213;-34
2022/07/25 04:34:04;;;;;;;5.40;4.50;;;23.50;94.40;;;;;;5105809;28;20027;-36
2022/07/25 04:36:29;;;;;;;6.00;4.80;;;23.50;94.30;;;;;;5104607;28;20078;-35
2022/07/25 04:38:55;;;;;;;5.18;4.60;;;23.50;94.30;;;;;;5106468;28;20042;-34
2022/07/25 04:41:21;;;;;;;5.00;4.60;;;23.60;94.30;;;;;;5105764;28;20030;-37
2022/07/25 04:43:47;;;;;;;4.68;4.28;;;23.60;94.30;;;;;;5104907;28;20020;-34
2022/07/25 04:46:16;;;;;;;4.57;4.18;;;23.60;94.20;;;;;;5105716;28;20088;-35
2022/07/25 04:48:41;;;;;;;5.40;5.00;;;23.60;94.10;;;;;;5106839;28;20027;-36
2022/07/25 04:51:07;;;;;;;5.95;4.93;;;23.70;94.00;;;;;;5105403;28;20080;-35
2022/07/25 04:53:33;;;;;;;5.47;5.03;;;23.70;93.90;;;;;;5105225;28;20073;-35
2022/07/25 04:55:58;;;;;;;5.95;5.13;;;23.70;93.80;;;;;;5105910;28;20028;-34
2022/07/25 04:58:24;;;;;;;6.68;5.10;;;23.80;93.80;;;;;;5104193;28;20019;-33
2022/07/25 05:00:49;;;;;;;6.28;5.35;;;23.80;93.70;;;;;;5106108;28;20039;-36
2022/07/25 05:03:15;;;;;;;5.57;5.07;;;23.80;93.70;;;;;;5105787;28;20023;-34
2022/07/25 05:05:41;;;;;;;5.60;5.05;;;23.80;93.70;;;;;;5104977;28;20031;-35
2022/07/25 05:08:06;;;;;;;6.85;4.97;;;23.80;93.60;;;;;;5105495;28;20031;-35
2022/07/25 05:10:32;;;;;;;5.43;4.93;;;23.80;93.70;;;;;;5105126;28;20126;-35
2022/07/25 05:12:57;;;;;;;5.18;4.70;;;23.90;93.70;;;;;;5104779;28;20107;-34
2022/07/25 05:15:23;;;;;;;7.03;5.07;;;23.90;93.70;;;;;;5105692;28;20027;-35
2022/07/25 05:17:49;;;;;;;6.00;5.05;;;23.90;93.60;;;;;;5105143;28;20047;-34
2022/07/25 05:20:14;;;;;;;5.55;5.05;;;24.00;93.60;;;;;;5105786;28;20031;-35
2022/07/25 05:22:40;;;;;;;6.32;5.20;;;24.00;93.50;;;;;;5104842;28;20065;-34
2022/07/25 05:25:07;;;;;;;5.57;5.07;;;24.00;93.50;;;;;;5104433;28;20073;-35
2022/07/25 05:27:33;;;;;;;5.50;5.00;;;24.00;93.40;;;;;;5104762;28;20015;-34
2022/07/25 05:29:58;;;;;;;6.00;5.35;;;24.00;93.50;;;;;;5105223;28;20031;-36
2022/07/25 05:32:24;;;;;;;5.95;5.45;;;24.00;93.50;;;;;;5103989;28;20068;-35
2022/07/25 05:34:49;;;;;;;6.10;5.50;;;24.00;93.40;;;;;;5105185;28;20558;-36
2022/07/25 05:37:15;;;;;;;6.57;5.90;;;24.00;93.50;;;;;;5105030;28;20038;-35
2022/07/25 05:39:41;;;;;;;6.25;5.65;;;23.90;93.40;;;;;;5104056;28;20103;-35
2022/07/25 05:42:06;;;;;;;6.70;5.95;;;23.90;93.50;;;;;;5105221;28;20548;-35
2022/07/25 05:44:32;;;;;;;6.75;6.13;;;24.00;93.50;;;;;;5106805;28;20039;-35
2022/07/25 05:46:58;;;;;;;7.10;6.43;;;23.90;93.60;;;;;;5108894;28;20600;-34
2022/07/25 05:49:23;;;;;;;6.80;6.20;;;24.00;93.60;;;;;;5109265;28;20019;-34
2022/07/25 05:51:50;;;;;;;6.78;5.97;;;24.00;93.60;;;;;;5109288;28;20032;-35
2022/07/25 05:54:16;;;;;;;6.47;5.82;;;24.10;93.60;;;;;;5107592;28;20080;-36
2022/07/25 05:56:41;;;;;;;6.60;6.00;;;24.10;93.60;;;;;;5109002;28;20421;-35
2022/07/25 05:59:07;;;;;;;6.90;5.80;;;24.10;93.60;;;;;;5108665;28;20024;-34
2022/07/25 06:01:33;;;;;;;7.45;6.65;;;24.20;93.70;;;;;;5108097;28;20058;-34
2022/07/25 06:03:58;;;;;;;6.40;5.80;;;24.20;93.70;;;;;;5109594;28;20097;-34
2022/07/25 06:06:24;;;;;;;7.45;5.68;;;24.30;93.60;;;;;;5108680;28;20078;-34
2022/07/25 06:08:50;;;;;;;6.75;6.15;;;24.40;93.60;;;;;;5108258;28;20035;-36
2022/07/25 06:11:15;;;;;;;6.85;6.15;;;24.40;93.50;;;;;;5108017;28;20016;-35
2022/07/25 06:13:41;;;;;;;6.78;6.18;;;24.40;93.50;;;;;;5108407;28;20651;-35
2022/07/25 06:16:07;;;;;;;5.75;5.13;;;24.50;93.50;;;;;;5108479;28;20103;-35
2022/07/25 06:18:33;;;;;;;5.95;5.35;;;24.60;93.50;;;;;;5108430;28;20023;-35
2022/07/25 06:20:58;;;;;;;5.90;5.40;;;24.60;93.60;;;;;;5108300;28;20375;-35
2022/07/25 06:23:24;;;;;;;6.93;6.30;;;24.60;93.50;;;;;;5107706;28;20094;-35
2022/07/25 06:25:49;;;;;;;7.13;6.43;;;24.70;93.40;;;;;;5108675;28;20051;-36
2022/07/25 06:28:15;;;;;;;5.93;5.25;;;24.70;93.40;;;;;;5108056;28;20047;-34
2022/07/25 06:30:42;;;;;;;7.18;6.47;;;24.90;93.40;;;;;;5108856;28;20100;-36
2022/07/25 06:33:08;;;;;;;6.55;5.95;;;24.90;93.30;;;;;;5109076;27;20024;-35
2022/07/25 06:35:33;;;;;;;6.72;5.72;;;25.00;93.20;;;;;;5106907;28;20352;-36
2022/07/25 06:37:59;;;;;;;5.78;5.22;;;25.00;93.10;;;;;;5108999;28;20481;-34
2022/07/25 06:40:27;;;;;;;6.53;5.93;;;25.10;93.00;;;;;;5107346;28;20064;-35
2022/07/25 06:42:53;;;;;;;5.78;5.28;;;25.10;93.00;;;;;;5107455;28;20360;-36
2022/07/25 06:45:19;;;;;;;6.25;5.68;;;25.00;92.90;;;;;;5107951;28;20077;-35
2022/07/25 06:47:45;;;;;;;6.85;6.25;;;25.10;92.90;;;;;;5107578;28;20028;-37
2022/07/25 06:50:13;;;;;;;6.10;5.60;;;25.00;92.80;;;;;;5107080;28;20145;-35
2022/07/25 06:52:40;;;;;;;6.72;6.00;;;25.10;92.80;;;;;;5107969;28;20016;-36
2022/07/25 06:55:07;;;;;;;5.95;5.45;;;25.10;92.80;;;;;;5106724;28;20107;-35
2022/07/25 06:57:32;;;;;;;5.80;5.07;;;25.00;92.70;;;;;;5106575;28;20042;-36
2022/07/25 06:59:58;;;;;;;6.45;5.85;;;25.00;93.00;;;;;;5107826;28;20390;-35
2022/07/25 07:02:24;;;;;;;6.65;6.05;;;25.00;92.70;;;;;;5107657;28;20123;-35
2022/07/25 07:04:49;;;;;;;4.78;4.38;;;24.90;92.80;;;;;;5107273;28;20046;-36
2022/07/25 07:07:16;;;;;;;6.43;5.40;;;24.80;92.80;;;;;;5106932;28;20122;-34
2022/07/25 07:09:42;;;;;;;5.60;5.10;;;24.70;92.80;;;;;;5107521;28;20019;-33
2022/07/25 07:12:08;;;;;;;5.90;5.30;;;24.70;92.90;;;;;;5107023;28;20039;-36
2022/07/25 07:14:34;;;;;;;5.65;4.93;;;24.60;92.90;;;;;;5107227;28;20019;-34
2022/07/25 07:16:59;;;;;;;5.35;4.85;;;24.60;93.00;;;;;;5107324;28;20035;-36
2022/07/25 07:19:25;;;;;;;8.60;5.90;;;24.60;93.00;;;;;;5107223;28;20406;-34
2022/07/25 07:21:51;;;;;;;5.70;4.93;;;24.60;92.90;;;;;;5107847;28;20406;-35
2022/07/25 07:24:17;;;;;;;7.40;4.60;;;24.70;92.90;;;;;;5107030;28;20070;-36
2022/07/25 07:26:42;;;;;;;4.40;4.00;;;24.70;92.70;;;;;;5106848;28;20038;-34
2022/07/25 07:29:08;;;;;;;4.15;3.75;;;24.80;92.40;;;;;;5107526;28;20050;-34
2022/07/25 07:31:33;;;;;;;3.95;3.40;;;24.80;92.00;;;;;;5105630;28;20498;-36
2022/07/25 07:33:59;;;;;;;3.40;3.10;;;24.90;91.90;;;;;;5107594;28;20027;-35
2022/07/25 07:36:25;;;;;;;4.30;3.30;;;24.90;91.90;;;;;;5106901;28;20540;-34
2022/07/25 07:38:51;;;;;;;3.65;3.35;;;25.00;91.80;;;;;;5106320;28;20031;-35
2022/07/25 07:41:17;;;;;;;3.17;2.90;;;25.00;91.70;;;;;;5107099;28;20031;-35
2022/07/25 07:43:43;;;;;;;3.10;2.80;;;25.10;91.60;;;;;;5106622;28;20473;-36
2022/07/25 07:46:08;;;;;;;2.80;2.60;;;25.10;91.60;;;;;;5106333;28;20032;-35
2022/07/25 07:48:34;;;;;;;3.33;3.03;;;25.20;91.50;;;;;;5106343;28;20026;-37
2022/07/25 07:51:00;;;;;;;2.50;2.30;;;25.30;91.50;;;;;;5107194;28;20040;-36
2022/07/25 07:56:11;;;;;;;2.50;2.30;;;25.40;91.20;;;;;;5087292;28;20086;-35
2022/07/25 07:58:36;;;;;;;4.30;2.75;;;25.50;91.20;;;;;;5101605;28;20466;-36
2022/07/25 08:01:02;;;;;;;2.22;2.05;;;25.50;90.80;;;;;;5105814;28;20026;-36
2022/07/25 08:03:28;;;;;;;2.60;2.40;;;25.50;90.70;;;;;;5105703;28;20028;-36
2022/07/25 08:05:53;;;;;;;2.15;2.05;;;25.50;90.60;;;;;;5106707;28;20043;-35
2022/07/25 08:08:19;;;;;;;2.30;2.10;;;25.50;90.50;;;;;;5105322;28;20443;-35
2022/07/25 08:10:46;;;;;;;3.08;2.10;;;25.60;90.50;;;;;;5106432;28;20031;-35
2022/07/25 08:13:16;;;;;;;2.70;2.20;;;25.60;90.30;;;;;;5106605;28;20031;-36
2022/07/25 08:15:43;;;;;;;2.28;2.08;;;25.60;90.10;;;;;;5105943;28;20063;-36
2022/07/25 08:18:09;;;;;;;2.95;2.10;;;25.60;90.10;;;;;;5106122;28;20031;-35
2022/07/25 08:20:34;;;;;;;1.85;1.73;;;25.50;90.00;;;;;;5106404;28;20020;-35
2022/07/25 08:23:00;;;;;;;2.47;1.95;;;25.40;90.10;;;;;;5106193;28;20043;-35
2022/07/25 08:25:26;;;;;;;2.33;1.98;;;25.40;90.00;;;;;;5105515;28;20680;-36
2022/07/25 08:27:52;;;;;;;3.03;1.88;;;25.40;89.60;;;;;;5105924;28;20027;-35
2022/07/25 08:30:18;;;;;;;1.83;1.45;;;25.50;89.50;;;;;;5106092;28;20407;-35
2022/07/25 08:32:55;;;;;;;1.42;1.33;;;25.60;89.10;;;;;;5106370;28;20106;-33
2022/07/25 08:35:23;;;;;;;1.98;1.45;;;25.50;88.30;;;;;;5104581;28;20352;-35
2022/07/25 08:37:50;;;;;;;1.63;1.45;;;25.50;88.50;;;;;;5105879;28;20123;-36
2022/07/25 08:40:17;;;;;;;2.40;1.52;;;25.60;88.40;;;;;;5105666;28;20024;-35
2022/07/25 08:42:43;;;;;;;1.58;1.13;;;25.70;88.60;;;;;;5105678;28;20028;-36
2022/07/25 08:45:15;;;;;;;2.72;1.30;;;25.70;88.60;;;;;;5105870;28;20028;-35
2022/07/25 08:47:41;;;;;;;2.60;1.30;;;25.80;88.80;;;;;;5106267;28;20116;-36
2022/07/25 08:50:10;;;;;;;1.77;1.15;;;25.80;89.00;;;;;;5104873;28;20035;-35
2022/07/25 08:52:36;;;;;;;2.65;1.40;;;25.90;89.30;;;;;;5105502;28;20063;-34
2022/07/25 08:55:05;;;;;;;1.42;1.13;;;25.90;89.50;;;;;;5105982;28;20107;-36
2022/07/25 08:57:30;;;;;;;1.60;1.30;;;26.00;89.60;;;;;;5104882;28;20062;-36
2022/07/25 08:59:57;;;;;;;1.77;1.10;;;26.20;89.50;;;;;;5105764;28;20070;-34
2022/07/25 09:02:25;;;;;;;1.50;1.15;;;26.40;89.30;;;;;;5105080;28;20073;-35
2022/07/25 09:04:51;;;;;;;0.82;0.82;;;26.50;89.30;;;;;;5104670;28;20483;-36
2022/07/25 09:07:16;;;;;;;2.28;1.27;;;26.60;89.20;;;;;;5105147;28;20023;-36
2022/07/25 09:09:43;;;;;;;4.53;1.20;;;26.60;89.50;;;;;;5105501;28;20031;-33
2022/07/25 09:12:09;;;;;;;2.97;1.10;;;26.60;89.70;;;;;;5104540;28;20476;-36
2022/07/25 09:14:42;;;;;;;1.67;1.25;;;26.60;89.90;;;;;;5104473;28;20034;-35
2022/07/25 09:17:07;;;;;;;1.00;0.90;;;26.60;89.90;;;;;;5105319;28;20023;-35
2022/07/25 09:19:33;;;;;;;1.13;0.95;;;26.50;89.90;;;;;;5104508;28;20027;-35
2022/07/25 09:22:07;;;;;;;1.40;0.90;;;26.50;90.00;;;;;;5105713;28;20039;-35
2022/07/25 09:24:33;;;;;;;1.60;0.90;;;26.50;90.10;;;;;;5104712;28;20507;-36
2022/07/25 09:27:09;;;;;;;1.83;1.10;;;26.40;90.10;;;;;;5105165;28;20114;-35
2022/07/25 09:29:37;;;;;;;1.67;1.10;;;26.30;90.20;;;;;;5105293;28;20035;-35
2022/07/25 09:32:20;;;;;;;2.78;1.20;;;26.10;90.40;;;;;;5104206;28;20517;-34
2022/07/25 09:34:48;;;;;;;1.17;0.90;;;26.00;90.70;;;;;;5105541;28;20031;-35
2022/07/25 09:37:15;;;;;;;1.35;0.85;;;25.90;91.00;;;;;;5103392;28;20549;-36
2022/07/25 09:39:49;;;;;;;2.05;0.80;;;25.90;91.10;;;;;;5104417;28;20039;-36
2022/07/25 09:42:31;;;;;;;0.80;0.80;;;26.00;91.20;;;;;;5104937;28;20061;-34
2022/07/25 09:45:02;;;;;;;1.48;0.80;;;26.10;91.30;;;;;;5105225;28;20027;-34
2022/07/25 09:47:29;;;;;;;1.80;0.93;;;26.10;91.30;;;;;;5104094;28;20038;-35
2022/07/25 09:49:55;;;;;;;1.67;0.73;;;26.20;91.40;;;;;;5105105;28;20483;-34
2022/07/25 09:52:20;;;;;;;1.80;0.90;;;26.20;91.30;;;;;;5103839;28;20024;-36
2022/07/25 09:54:46;;;;;;;1.75;0.70;;;26.30;91.20;;;;;;5104618;28;20471;-34
2022/07/25 09:57:11;;;;;;;0.95;0.80;;;26.30;91.20;;;;;;5104904;28;20019;-34
2022/07/25 09:59:38;;;;;;;0.90;0.75;;;26.40;91.10;;;;;;5104179;28;20024;-35
2022/07/25 10:02:24;;;;;;;2.97;1.05;;;26.50;91.00;;;;;;5105144;28;20024;-35
2022/07/25 10:04:58;;;;;;;1.73;0.98;;;26.40;90.80;;;;;;5104675;28;20068;-35
2022/07/25 10:07:25;;;;;;;2.47;0.90;;;26.30;90.80;;;;;;5103977;28;20024;-34
2022/07/25 10:09:54;;;;;;;1.20;1.00;;;26.20;90.80;;;;;;5104882;28;20028;-34
2022/07/25 10:12:22;;;;;;;1.58;1.00;;;26.20;91.00;;;;;;5104414;28;20922;-35
2022/07/25 10:15:07;;;;;;;1.73;0.88;;;26.20;91.10;;;;;;5103914;28;20031;-35
2022/07/25 10:17:33;;;;;;;1.60;1.13;;;26.30;90.90;;;;;;5104207;28;20023;-34
2022/07/25 10:20:00;;;;;;;2.17;0.90;;;26.30;90.70;;;;;;5105654;28;20023;-35
2022/07/25 10:22:37;;;;;;;1.83;1.25;;;26.30;90.80;;;;;;5103650;28;20031;-35
2022/07/25 10:25:13;;;;;;;1.63;1.10;;;26.50;91.00;;;;;;5104355;28;20691;-34
2022/07/25 10:27:47;;;;;;;1.98;0.90;;;26.60;91.00;;;;;;5103167;28;20028;-35
2022/07/25 10:30:22;;;;;;;1.67;0.77;;;26.70;90.90;;;;;;5106160;28;20062;-34
2022/07/25 10:32:59;;;;;;;1.52;0.90;;;26.90;90.90;;;;;;5108620;28;20039;-34
2022/07/25 10:35:26;;;;;;;1.45;1.00;;;27.10;90.90;;;;;;5106826;28;20110;-36
2022/07/25 10:37:53;;;;;;;3.28;1.60;;;27.10;90.80;;;;;;5108018;28;20493;-34
2022/07/25 10:40:33;;;;;;;3.63;1.33;;;27.20;90.40;;;;;;5108202;28;20031;-35
2022/07/25 10:43:04;;;;;;;5.25;1.10;;;27.20;90.30;;;;;;5107654;28;20471;-36
2022/07/25 10:45:49;;;;;;;1.47;0.90;;;27.20;90.30;;;;;;5107638;28;20050;-35
2022/07/25 10:48:30;;;;;;;2.55;1.20;;;27.30;89.60;;;;;;5107849;28;20415;-36
2022/07/25 10:51:00;;;;;;;1.77;0.90;;;27.30;88.20;;;;;;5108108;28;20476;-35
2022/07/25 10:53:37;;;;;;;1.55;0.85;;;27.20;87.00;;;;;;5106855;28;20079;-35
2022/07/25 10:56:18;;;;;;;2.03;1.55;;;27.20;85.70;;;;;;5108027;28;20022;-35
2022/07/25 10:58:52;;;;;;;1.73;1.00;;;27.20;86.10;;;;;;5107068;28;20487;-35
2022/07/25 11:01:30;;;;;;;1.50;1.27;;;27.10;86.40;;;;;;5107483;28;20539;-34
2022/07/25 11:03:58;;;;;;;1.88;1.00;;;27.10;87.20;;;;;;5107030;28;20033;-34
2022/07/25 11:06:41;;;;;;;3.22;1.33;;;27.10;86.60;;;;;;5107706;28;20039;-35
2022/07/25 11:09:21;;;;;;;2.70;1.30;;;27.20;86.60;;;;;;5107591;28;20066;-34
2022/07/25 11:11:48;;;;;;;1.77;1.13;;;27.30;86.70;;;;;;5106859;28;20497;-35
2022/07/25 11:14:14;;;;;;;2.30;1.30;;;27.30;86.40;;;;;;5107732;28;20047;-35
2022/07/25 11:16:40;;;;;;;5.15;1.20;;;27.40;86.70;;;;;;5106549;28;20070;-35
2022/07/25 11:19:16;;;;;;;1.42;0.98;;;27.40;86.90;;;;;;5107653;28;20043;-35
2022/07/25 11:21:46;;;;;;;1.55;1.17;;;27.40;87.00;;;;;;5097405;28;20124;-34
2022/07/25 11:24:12;;;;;;;2.72;1.25;;;27.40;87.00;;;;;;5107044;28;20253;-36
2022/07/25 11:26:51;;;;;;;1.90;1.05;;;27.50;87.10;;;;;;5107207;28;20138;-36
2022/07/25 11:29:33;;;;;;;2.35;1.40;;;27.50;87.20;;;;;;5107087;28;20063;-36
2022/07/25 11:32:01;;;;;;;4.70;1.45;;;27.50;87.20;;;;;;5095698;28;20085;-35
2022/07/25 11:34:29;;;;;;;2.42;1.30;;;27.50;86.70;;;;;;5106642;28;20441;-36
2022/07/25 11:36:57;;;;;;;3.03;1.48;;;27.30;86.90;;;;;;5107779;28;20057;-34
2022/07/25 11:39:28;;;;;;;3.28;1.60;;;27.30;86.50;;;;;;5106294;28;20544;-36
2022/07/25 11:42:08;;;;;;;2.92;1.30;;;27.10;86.10;;;;;;5103323;28;20084;-34
2022/07/25 11:44:39;;;;;;;2.65;1.52;;;27.00;86.50;;;;;;5106193;28;20178;-34
2022/07/25 11:47:08;;;;;;;4.63;1.43;;;26.90;86.50;;;;;;5107644;28;20020;-35
2022/07/25 11:49:45;;;;;;;2.40;1.35;;;26.80;86.40;;;;;;5106596;28;20319;-36
2022/07/25 11:52:19;;;;;;;4.85;1.77;;;26.70;86.50;;;;;;5102558;28;20026;-37
2022/07/25 11:55:17;;;;;;;3.90;1.50;;;26.60;86.40;;;;;;5106545;28;20032;-36
2022/07/25 11:57:45;;;;;;;5.22;1.75;;;26.50;86.90;;;;;;5090794;28;20118;-36
2022/07/25 12:00:17;;;;;;;5.43;1.63;;;26.40;86.90;;;;;;5105785;28;20486;-35
2022/07/25 12:02:43;;;;;;;2.42;1.27;;;26.40;87.20;;;;;;5106470;28;20433;-36
2022/07/25 12:05:11;;;;;;;3.10;1.60;;;26.40;87.40;;;;;;5106494;28;20483;-35
2022/07/25 12:07:48;;;;;;;3.55;1.38;;;26.40;86.90;;;;;;5105459;28;20027;-36
2022/07/25 12:10:21;;;;;;;3.42;1.42;;;26.40;86.60;;;;;;5106654;28;20475;-35
2022/07/25 12:12:55;;;;;;;3.38;1.60;;;26.40;86.20;;;;;;5105581;28;20019;-36
2022/07/25 12:15:26;;;;;;;2.75;1.55;;;26.40;85.90;;;;;;5106017;28;20031;-34
2022/07/25 12:17:53;;;;;;;2.75;1.30;;;26.50;85.90;;;;;;5106139;28;20052;-36
2022/07/25 12:20:26;;;;;;;4.72;1.50;;;26.50;84.40;;;;;;5105901;28;20061;-34
2022/07/25 12:22:55;;;;;;;1.80;1.15;;;26.60;83.70;;;;;;5106416;28;20024;-35
2022/07/25 12:25:20;;;;;;;3.95;1.75;;;26.70;83.50;;;;;;5105729;28;20063;-35
2022/07/25 12:27:47;;;;;;;4.30;1.67;;;26.70;83.20;;;;;;5104806;28;20024;-34
2022/07/25 12:30:13;;;;;;;6.25;1.70;;;26.70;83.20;;;;;;5106096;28;20467;-35
2022/07/25 12:32:40;;;;;;;4.18;2.00;;;26.70;83.60;;;;;;5105250;28;20024;-35
2022/07/25 12:35:07;;;;;;;3.17;1.70;;;26.60;83.50;;;;;;5105615;28;20023;-35
2022/07/25 12:37:33;;;;;;;4.35;2.03;;;26.50;83.50;;;;;;5105188;28;20494;-35
2022/07/25 12:39:59;;;;;;;4.05;1.98;;;26.40;84.00;;;;;;5106243;28;20070;-35
2022/07/25 12:42:27;;;;;;;2.88;1.83;;;26.30;84.50;;;;;;5104449;28;20457;-35
2022/07/25 12:44:53;;;;;;;6.35;2.38;;;26.30;84.50;;;;;;5106079;28;20035;-35
2022/07/25 12:47:19;;;;;;;6.07;2.22;;;26.40;84.70;;;;;;5105312;28;20131;-35
2022/07/25 12:49:45;;;;;;;3.58;1.95;;;26.40;84.60;;;;;;5105208;28;20609;-36
2022/07/25 12:52:10;;;;;;;4.65;2.35;;;26.30;84.60;;;;;;5105751;28;20523;-35